createdAt,value
2023-05-21T00:09:24.930Z,1003.2
2023-05-21T00:24:45.891Z,1003.1
2023-05-21T00:40:06.860Z,1003.1
2023-05-21T00:55:27.797Z,1003
2023-05-21T01:10:47.799Z,1002.8
2023-05-21T01:26:08.736Z,1002.6
2023-05-21T01:41:29.716Z,1002.6
2023-05-21T01:56:50.687Z,1002.6
2023-05-21T02:12:11.651Z,1002.6
2023-05-21T02:27:32.613Z,1002.6
2023-05-21T02:42:53.542Z,1002.6
2023-05-21T02:58:14.460Z,1002.5
2023-05-21T03:13:35.381Z,1002.5
2023-05-21T03:28:56.307Z,1002.4
2023-05-21T03:44:17.203Z,1002.4
2023-05-21T03:59:38.130Z,1002.4
2023-05-21T04:14:59.077Z,1002.4
2023-05-21T04:30:19.000Z,1002.6
2023-05-21T04:45:39.893Z,1002.6
2023-05-21T05:01:00.842Z,1002.6
2023-05-21T05:02:21.920Z,1002.6
2023-05-21T05:03:42.955Z,1002.5
2023-05-21T05:05:04.050Z,1002.6
2023-05-21T05:06:25.084Z,1002.6
2023-05-21T05:07:46.179Z,1002.5
2023-05-21T05:09:07.215Z,1002.6
2023-05-21T05:10:28.290Z,1002.6
2023-05-21T05:11:49.390Z,1002.6
2023-05-21T05:13:10.447Z,1002.6
2023-05-21T05:14:31.522Z,1002.6
2023-05-21T05:15:51.571Z,1002.5
2023-05-21T05:17:12.663Z,1002.5
2023-05-21T05:18:33.000Z,1002.5
2023-05-21T05:19:54.770Z,1002.5
2023-05-21T05:21:15.872Z,1002.5
2023-05-21T05:22:36.932Z,1002.5
2023-05-21T05:23:57.044Z,1002.5
2023-05-21T05:25:18.108Z,1002.5
2023-05-21T05:26:39.184Z,1002.5
2023-05-21T05:28:00.234Z,1002.5
2023-05-21T05:29:21.318Z,1002.5
2023-05-21T05:30:42.383Z,1002.5
2023-05-21T05:32:03.445Z,1002.5
2023-05-21T05:33:24.489Z,1002.5
2023-05-21T05:34:45.581Z,1002.5
2023-05-21T05:36:06.633Z,1002.5
2023-05-21T05:37:27.724Z,1002.5
2023-05-21T05:38:48.798Z,1002.5
2023-05-21T05:40:09.818Z,1002.4
2023-05-21T05:41:29.944Z,1002.4
2023-05-21T05:42:51.021Z,1002.4
2023-05-21T05:44:12.070Z,1002.5
2023-05-21T05:45:33.145Z,1002.4
2023-05-21T05:46:54.195Z,1002.4
2023-05-21T05:48:15.274Z,1002.4
2023-05-21T05:49:36.348Z,1002.4
2023-05-21T05:50:57.447Z,1002.4
2023-05-21T05:52:18.524Z,1002.4
2023-05-21T05:53:39.610Z,1002.4
2023-05-21T05:55:00.681Z,1002.4
2023-05-21T05:56:21.733Z,1002.3
2023-05-21T05:57:42.843Z,1002.3
2023-05-21T05:59:02.944Z,1002.3
2023-05-21T06:00:23.996Z,1002.3
2023-05-21T06:01:45.096Z,1002.3
2023-05-21T06:03:06.166Z,1002.3
2023-05-21T06:04:27.253Z,1002.3
2023-05-21T06:05:48.323Z,1002.3
2023-05-21T06:07:09.405Z,1002.3
2023-05-21T06:08:30.482Z,1002.3
2023-05-21T06:09:51.562Z,1002.3
2023-05-21T06:11:12.643Z,1002.3
2023-05-21T06:12:33.687Z,1002.3
2023-05-21T06:13:54.780Z,1002.3
2023-05-21T06:15:15.865Z,1002.3
2023-05-21T06:16:35.941Z,1002.3
2023-05-21T06:17:57.028Z,1002.2
2023-05-21T06:19:18.000Z,1002.3
2023-05-21T06:20:39.167Z,1002.3
2023-05-21T06:22:00.278Z,1002.3
2023-05-21T06:23:21.344Z,1002.3
2023-05-21T06:24:42.416Z,1002.3
2023-05-21T06:26:03.503Z,1002.3
2023-05-21T06:27:24.575Z,1002.3
2023-05-21T06:28:45.654Z,1002.3
2023-05-21T06:30:06.712Z,1002.3
2023-05-21T06:31:27.803Z,1002.3
2023-05-21T06:32:48.897Z,1002.3
2023-05-21T06:34:08.982Z,1002.3
2023-05-21T06:35:30.027Z,1002.3
2023-05-21T06:36:51.142Z,1002.3
2023-05-21T06:38:12.212Z,1002.3
2023-05-21T06:39:33.289Z,1002.3
2023-05-21T06:40:54.378Z,1002.3
2023-05-21T06:42:15.450Z,1002.3
2023-05-21T06:43:36.514Z,1002.3
2023-05-21T06:44:57.592Z,1002.3
2023-05-21T06:46:18.667Z,1002.3
2023-05-21T06:47:39.763Z,1002.3
2023-05-21T06:49:00.815Z,1002.3
2023-05-21T06:50:21.918Z,1002.3
2023-05-21T06:51:41.977Z,1002.3
2023-05-21T06:53:03.043Z,1002.2
2023-05-21T06:54:24.146Z,1002.2
2023-05-21T06:55:45.228Z,1002.2
2023-05-21T06:57:06.279Z,1002.2
2023-05-21T06:58:27.377Z,1002.2
2023-05-21T06:59:48.456Z,1002.1
2023-05-21T07:01:09.536Z,1002.1
2023-05-21T07:02:30.632Z,1002.1
2023-05-21T07:03:51.697Z,1002.2
2023-05-21T07:05:12.749Z,1002.2
2023-05-21T07:06:33.853Z,1002.2
2023-05-21T07:07:54.893Z,1002.2
2023-05-21T07:09:15.003Z,1002.2
2023-05-21T07:10:36.104Z,1002.2
2023-05-21T07:11:57.157Z,1002.2
2023-05-21T07:13:18.265Z,1002.2
2023-05-21T07:14:39.330Z,1002.2
2023-05-21T07:16:00.426Z,1002.2
2023-05-21T07:17:21.506Z,1002.2
2023-05-21T07:18:42.576Z,1002.2
2023-05-21T07:20:03.646Z,1002.2
2023-05-21T07:21:24.690Z,1002.2
2023-05-21T07:22:45.813Z,1002.2
2023-05-21T07:24:06.852Z,1002.2
2023-05-21T07:25:27.917Z,1002.2
2023-05-21T07:26:48.044Z,1002.2
2023-05-21T07:28:09.124Z,1002.2
2023-05-21T07:29:30.000Z,1002.2
2023-05-21T07:30:51.284Z,1002.2
2023-05-21T07:32:12.322Z,1002.2
2023-05-21T07:33:33.407Z,1002.2
2023-05-21T07:34:54.512Z,1002.2
2023-05-21T07:36:15.570Z,1002.1
2023-05-21T07:37:36.668Z,1002.1
2023-05-21T07:38:57.745Z,1002.1
2023-05-21T07:40:18.830Z,1002.2
2023-05-21T07:41:39.903Z,1002.2
2023-05-21T07:43:00.984Z,1002.2
2023-05-21T07:44:21.043Z,1002.3
2023-05-21T07:45:42.114Z,1002.3
2023-05-21T07:47:03.246Z,1002.3
2023-05-21T07:48:24.310Z,1002.3
2023-05-21T07:49:45.355Z,1002.2
2023-05-21T07:51:06.473Z,1002.2
2023-05-21T07:52:27.543Z,1002.3
2023-05-21T07:53:48.621Z,1002.2
2023-05-21T07:55:09.699Z,1002.2
2023-05-21T07:56:30.776Z,1002.2
2023-05-21T07:57:51.853Z,1002.2
2023-05-21T07:59:12.952Z,1002.2
2023-05-21T08:00:34.024Z,1002.2
2023-05-21T08:01:54.107Z,1002.2
2023-05-21T08:04:36.238Z,1002.2
2023-05-21T08:05:57.343Z,1002.2
2023-05-21T08:07:18.429Z,1002.1
2023-05-21T08:08:39.469Z,1002.1
2023-05-21T08:10:00.594Z,1002.1
2023-05-21T08:11:21.622Z,1002.1
2023-05-21T08:12:42.706Z,1002.1
2023-05-21T08:14:03.815Z,1002.1
2023-05-21T08:15:24.862Z,1002.1
2023-05-21T08:16:45.981Z,1002.1
2023-05-21T08:18:07.060Z,1002.1
2023-05-21T08:19:27.155Z,1002.1
2023-05-21T08:20:48.217Z,1002.1
2023-05-21T08:22:09.257Z,1002.1
2023-05-21T08:23:30.369Z,1002.1
2023-05-21T08:24:51.443Z,1002.1
2023-05-21T08:26:12.518Z,1002.1
2023-05-21T08:27:33.608Z,1002.1
2023-05-21T08:28:54.643Z,1002.1
2023-05-21T08:30:15.716Z,1002.1
2023-05-21T08:31:36.828Z,1002.1
2023-05-21T08:32:57.872Z,1002.1
2023-05-21T08:34:18.985Z,1002.1
2023-05-21T08:35:40.068Z,1002.1
2023-05-21T08:37:01.151Z,1002.1
2023-05-21T08:38:21.239Z,1002.1
2023-05-21T08:39:42.315Z,1002.1
2023-05-21T08:41:03.387Z,1002.1
2023-05-21T08:42:24.465Z,1002.1
2023-05-21T08:43:45.553Z,1002.2
2023-05-21T08:45:06.621Z,1002.2
2023-05-21T08:46:27.000Z,1002.2
2023-05-21T08:47:48.778Z,1002.2
2023-05-21T08:49:09.851Z,1002.2
2023-05-21T08:50:30.931Z,1002.2
2023-05-21T08:51:52.013Z,1002.2
2023-05-21T08:53:13.000Z,1002.2
2023-05-21T08:54:34.137Z,1002.2
2023-05-21T08:55:54.258Z,1002.2
2023-05-21T08:57:15.344Z,1002.2
2023-05-21T08:58:36.385Z,1002.2
2023-05-21T08:59:57.496Z,1002.2
2023-05-21T09:01:18.577Z,1002.2
2023-05-21T09:02:39.616Z,1002.2
2023-05-21T09:04:00.730Z,1002.2
2023-05-21T09:05:21.808Z,1002.2
2023-05-21T09:06:42.886Z,1002.2
2023-05-21T09:08:03.979Z,1002.2
2023-05-21T09:09:25.047Z,1002.2
2023-05-21T09:10:46.121Z,1002.2
2023-05-21T09:12:07.164Z,1002.2
2023-05-21T09:13:27.293Z,1002.2
2023-05-21T09:14:48.386Z,1002.2
2023-05-21T09:16:09.443Z,1002.2
2023-05-21T09:17:30.501Z,1002.2
2023-05-21T09:18:51.584Z,1002.2
2023-05-21T09:20:12.651Z,1002.2
2023-05-21T09:21:33.775Z,1002.2
2023-05-21T09:22:54.819Z,1002.2
2023-05-21T09:24:15.926Z,1002.2
2023-05-21T09:25:37.003Z,1002.2
2023-05-21T09:26:58.079Z,1002.2
2023-05-21T09:28:19.141Z,1002.2
2023-05-21T09:29:40.195Z,1002.2
2023-05-21T09:31:00.309Z,1002.2
2023-05-21T09:32:21.399Z,1002.2
2023-05-21T09:33:42.477Z,1002.1
2023-05-21T09:35:03.519Z,1002.2
2023-05-21T09:36:24.605Z,1002.2
2023-05-21T09:37:45.667Z,1002.1
2023-05-21T09:39:06.744Z,1002.1
2023-05-21T09:40:27.875Z,1002.1
2023-05-21T09:41:48.936Z,1002.1
2023-05-21T09:43:10.017Z,1002.1
2023-05-21T09:44:31.102Z,1002.1
2023-05-21T09:45:52.173Z,1002
2023-05-21T09:47:13.258Z,1002
2023-05-21T09:48:33.349Z,1002
2023-05-21T09:49:54.379Z,1002
2023-05-21T09:51:15.458Z,1002
2023-05-21T09:52:36.546Z,1002
2023-05-21T09:53:57.660Z,1002
2023-05-21T09:55:17.746Z,1002
2023-05-21T09:56:38.841Z,1002
2023-05-21T09:57:59.910Z,1002
2023-05-21T09:59:20.956Z,1002
2023-05-21T10:00:42.067Z,1002
2023-05-21T10:02:03.148Z,1002
2023-05-21T10:03:24.230Z,1002
2023-05-21T10:04:45.306Z,1002
2023-05-21T10:06:06.369Z,1002
2023-05-21T10:07:27.447Z,1002
2023-05-21T10:08:48.540Z,1001.9
2023-05-21T10:10:09.605Z,1001.9
2023-05-21T10:11:30.687Z,1001.9
2023-05-21T10:12:50.781Z,1001.9
2023-05-21T10:14:11.811Z,1001.9
2023-05-21T10:15:32.889Z,1001.9
2023-05-21T10:16:54.014Z,1001.9
2023-05-21T10:18:15.091Z,1001.9
2023-05-21T10:19:36.127Z,1001.8
2023-05-21T10:20:57.233Z,1001.8
2023-05-21T10:22:18.322Z,1001.8
2023-05-21T10:23:39.349Z,1001.8
2023-05-21T10:25:00.479Z,1001.8
2023-05-21T10:26:21.549Z,1001.8
2023-05-21T10:27:42.621Z,1001.8
2023-05-21T10:29:03.704Z,1001.8
2023-05-21T10:30:23.756Z,1001.7
2023-05-21T10:33:05.916Z,1001.7
2023-05-21T10:34:27.029Z,1001.7
2023-05-21T10:35:48.113Z,1001.7
2023-05-21T10:37:09.192Z,1001.7
2023-05-21T10:38:30.257Z,1001.8
2023-05-21T10:39:51.293Z,1001.7
2023-05-21T10:41:12.412Z,1001.7
2023-05-21T10:42:33.499Z,1001.7
2023-05-21T10:43:54.570Z,1001.6
2023-05-21T10:45:15.638Z,1001.6
2023-05-21T10:46:36.722Z,1001.6
2023-05-21T10:47:56.818Z,1001.6
2023-05-21T10:49:17.888Z,1001.6
2023-05-21T10:50:38.982Z,1001.6
2023-05-21T10:52:00.053Z,1001.6
2023-05-21T10:53:21.137Z,1001.6
2023-05-21T10:54:42.214Z,1001.6
2023-05-21T10:57:24.370Z,1001.6
2023-05-21T10:58:45.438Z,1001.6
2023-05-21T11:00:06.509Z,1001.6
2023-05-21T11:01:27.582Z,1001.6
2023-05-21T11:02:48.669Z,1001.5
2023-05-21T11:04:09.745Z,1001.6
2023-05-21T11:05:29.842Z,1001.5
2023-05-21T11:06:50.866Z,1001.5
2023-05-21T11:08:11.987Z,1001.5
2023-05-21T11:09:33.070Z,1001.6
2023-05-21T11:10:54.158Z,1001.5
2023-05-21T11:12:15.241Z,1001.5
2023-05-21T11:13:36.268Z,1001.5
2023-05-21T11:14:57.379Z,1001.5
2023-05-21T11:16:18.473Z,1001.5
2023-05-21T11:17:39.544Z,1001.5
2023-05-21T11:19:00.630Z,1001.5
2023-05-21T11:20:21.701Z,1001.5
2023-05-21T11:21:42.771Z,1001.5
2023-05-21T11:23:02.877Z,1001.5
2023-05-21T11:24:23.897Z,1001.5
2023-05-21T11:25:45.017Z,1001.5
2023-05-21T11:27:06.099Z,1001.5
2023-05-21T11:28:27.188Z,1001.5
2023-05-21T11:29:48.254Z,1001.5
2023-05-21T11:31:09.000Z,1001.5
2023-05-21T11:32:30.409Z,1001.5
2023-05-21T11:33:51.491Z,1001.4
2023-05-21T11:35:12.561Z,1001.4
2023-05-21T11:36:33.642Z,1001.4
2023-05-21T11:37:54.708Z,1001.4
2023-05-21T11:39:15.000Z,1001.4
2023-05-21T11:40:35.880Z,1001.4
2023-05-21T11:41:56.973Z,1001.4
2023-05-21T11:43:18.001Z,1001.4
2023-05-21T11:44:39.073Z,1001.4
2023-05-21T11:46:00.198Z,1001.4
2023-05-21T11:47:21.280Z,1001.3
2023-05-21T11:48:42.361Z,1001.3
2023-05-21T11:50:03.391Z,1001.3
2023-05-21T11:51:24.465Z,1001.4
2023-05-21T11:52:45.587Z,1001.4
2023-05-21T11:54:06.663Z,1001.3
2023-05-21T11:55:27.738Z,1001.3
2023-05-21T11:56:48.827Z,1001.4
2023-05-21T11:58:08.911Z,1001.3
2023-05-21T11:59:29.996Z,1001.2
2023-05-21T12:00:51.064Z,1001.3
2023-05-21T12:02:12.099Z,1001.3
2023-05-21T12:03:33.213Z,1001.4
2023-05-21T12:04:54.246Z,1001.3
2023-05-21T12:06:15.383Z,1001.2
2023-05-21T12:07:36.462Z,1001.3
2023-05-21T12:08:57.488Z,1001.3
2023-05-21T12:10:18.610Z,1001.2
2023-05-21T12:11:39.690Z,1001.3
2023-05-21T12:13:00.770Z,1001.4
2023-05-21T12:14:21.844Z,1001.3
2023-05-21T12:15:41.935Z,1001.4
2023-05-21T12:17:03.016Z,1001.4
2023-05-21T12:18:24.049Z,1001.2
2023-05-21T12:19:45.177Z,1001.3
2023-05-21T12:21:06.254Z,1001.3
2023-05-21T12:22:27.329Z,1001.2
2023-05-21T12:23:48.406Z,1001.2
2023-05-21T12:25:09.439Z,1001.2
2023-05-21T12:26:30.561Z,1001.3
2023-05-21T12:27:51.641Z,1001.2
2023-05-21T12:29:12.724Z,1001.3
2023-05-21T12:30:33.792Z,1001.3
2023-05-21T12:31:54.870Z,1001.3
2023-05-21T12:33:14.914Z,1001.2
2023-05-21T12:34:35.996Z,1001.3
2023-05-21T12:35:57.080Z,1001.2
2023-05-21T12:37:18.197Z,1001.3
2023-05-21T12:38:39.282Z,1001.3
2023-05-21T12:40:00.342Z,1001.3
2023-05-21T12:41:21.426Z,1001.3
2023-05-21T12:42:42.454Z,1001.2
2023-05-21T12:44:03.586Z,1001.2
2023-05-21T12:45:24.668Z,1001.2
2023-05-21T12:46:45.740Z,1001.2
2023-05-21T12:48:06.784Z,1001.2
2023-05-21T12:49:27.912Z,1001.2
2023-05-21T12:50:48.001Z,1001.2
2023-05-21T12:52:09.078Z,1001.2
2023-05-21T12:53:30.155Z,1001.2
2023-05-21T12:54:51.230Z,1001.3
2023-05-21T12:56:12.308Z,1001.2
2023-05-21T12:57:33.384Z,1001.1
2023-05-21T12:58:54.415Z,1001.2
2023-05-21T13:00:15.536Z,1001.2
2023-05-21T13:01:36.618Z,1001.1
2023-05-21T13:02:57.707Z,1001.2
2023-05-21T13:04:18.779Z,1001.1
2023-05-21T13:05:39.798Z,1001.1
2023-05-21T13:07:00.938Z,1001.1
2023-05-21T13:08:21.022Z,1001.1
2023-05-21T13:09:42.051Z,1001.1
2023-05-21T13:11:03.185Z,1001.1
2023-05-21T13:12:24.265Z,1001.1
2023-05-21T13:13:45.331Z,1001.1
2023-05-21T13:15:06.369Z,1001
2023-05-21T13:16:27.478Z,1001.1
2023-05-21T13:17:48.561Z,1001.1
2023-05-21T13:19:09.638Z,1001
2023-05-21T13:20:30.725Z,1001.2
2023-05-21T13:21:51.792Z,1001.1
2023-05-21T13:23:12.865Z,1001
2023-05-21T13:24:33.951Z,1001
2023-05-21T13:25:53.994Z,1001
2023-05-21T13:27:15.127Z,1001
2023-05-21T13:28:36.205Z,1001
2023-05-21T13:29:57.279Z,1001
2023-05-21T13:31:18.352Z,1001
2023-05-21T13:34:00.509Z,1001
2023-05-21T13:35:21.593Z,1001
2023-05-21T13:36:42.677Z,1001
2023-05-21T13:38:03.741Z,1001
2023-05-21T13:39:24.832Z,1001
2023-05-21T13:40:45.900Z,1001
2023-05-21T13:42:06.968Z,1001
2023-05-21T13:43:27.072Z,1001
2023-05-21T13:44:48.144Z,1001
2023-05-21T13:46:09.236Z,1001
2023-05-21T13:47:30.312Z,1001
2023-05-21T13:48:51.380Z,1001
2023-05-21T13:50:12.455Z,1001
2023-05-21T13:51:33.532Z,1001
2023-05-21T13:52:54.573Z,1001
2023-05-21T13:54:15.645Z,1001
2023-05-21T13:55:36.777Z,1001.1
2023-05-21T13:56:57.846Z,1001
2023-05-21T13:58:18.933Z,1001
2023-05-21T13:59:40.014Z,1001
2023-05-21T14:01:00.105Z,1001
2023-05-21T14:02:21.124Z,1001
2023-05-21T14:03:42.259Z,1001
2023-05-21T14:05:03.329Z,1001
2023-05-21T14:06:24.406Z,1001
2023-05-21T14:07:45.495Z,1000.9
2023-05-21T14:09:06.577Z,1000.9
2023-05-21T14:10:27.603Z,1001
2023-05-21T14:11:48.718Z,1001
2023-05-21T14:13:09.752Z,1001
2023-05-21T14:14:30.822Z,1001
2023-05-21T14:15:51.967Z,1000.9
2023-05-21T14:17:13.029Z,1000.9
2023-05-21T14:18:33.079Z,1000.9
2023-05-21T14:19:54.202Z,1000.9
2023-05-21T14:21:15.299Z,1000.9
2023-05-21T14:22:36.359Z,1000.9
2023-05-21T14:23:57.449Z,1000.8
2023-05-21T14:25:18.523Z,1000.8
2023-05-21T14:26:38.614Z,1000.9
2023-05-21T14:27:59.693Z,1000.8
2023-05-21T14:29:20.792Z,1000.9
2023-05-21T14:30:41.820Z,1000.8
2023-05-21T14:32:02.940Z,1000.8
2023-05-21T14:33:24.026Z,1000.8
2023-05-21T14:34:45.041Z,1000.8
2023-05-21T14:36:06.169Z,1000.8
2023-05-21T14:37:27.254Z,1000.8
2023-05-21T14:38:48.340Z,1000.8
2023-05-21T14:40:09.410Z,1000.9
2023-05-21T14:41:30.504Z,1000.9
2023-05-21T14:42:51.583Z,1000.9
2023-05-21T14:44:11.672Z,1000.9
2023-05-21T14:45:32.746Z,1000.8
2023-05-21T14:46:53.780Z,1000.9
2023-05-21T14:48:14.841Z,1000.9
2023-05-21T14:49:35.927Z,1000.8
2023-05-21T14:50:56.996Z,1000.9
2023-05-21T14:52:18.077Z,1000.9
2023-05-21T14:53:39.209Z,1000.8
2023-05-21T14:56:21.356Z,1000.8
2023-05-21T14:57:42.434Z,1000.8
2023-05-21T14:59:03.509Z,1000.8
2023-05-21T15:00:24.598Z,1000.8
2023-05-21T15:01:44.698Z,1000.8
2023-05-21T15:03:05.764Z,1000.8
2023-05-21T15:04:26.830Z,1000.8
2023-05-21T15:05:47.911Z,1000.9
2023-05-21T15:07:08.996Z,1000.8
2023-05-21T15:08:30.031Z,1000.9
2023-05-21T15:09:51.164Z,1000.9
2023-05-21T15:11:12.227Z,1000.8
2023-05-21T15:12:33.312Z,1000.8
2023-05-21T15:13:54.342Z,1000.9
2023-05-21T15:15:15.417Z,1000.8
2023-05-21T15:16:36.557Z,1000.9
2023-05-21T15:17:57.633Z,1000.9
2023-05-21T15:19:17.736Z,1000.9
2023-05-21T15:20:38.814Z,1000.9
2023-05-21T15:21:59.835Z,1000.9
2023-05-21T15:23:20.904Z,1000.8
2023-05-21T15:24:41.976Z,1000.9
2023-05-21T15:26:03.114Z,1000.8
2023-05-21T15:27:24.184Z,1000.8
2023-05-21T15:28:45.272Z,1000.8
2023-05-21T15:30:06.296Z,1000.8
2023-05-21T15:31:27.423Z,1000.9
2023-05-21T15:32:48.519Z,1000.9
2023-05-21T15:34:09.587Z,1000.9
2023-05-21T15:35:30.681Z,1000.8
2023-05-21T15:36:50.760Z,1000.8
2023-05-21T15:38:11.780Z,1000.8
2023-05-21T15:39:32.862Z,1000.9
2023-05-21T15:40:54.005Z,1000.8
2023-05-21T15:42:15.082Z,1000.8
2023-05-21T15:43:36.103Z,1000.8
2023-05-21T15:44:57.229Z,1000.8
2023-05-21T15:46:18.320Z,1000.8
2023-05-21T15:47:39.385Z,1000.8
2023-05-21T15:49:00.464Z,1000.8
2023-05-21T15:50:21.539Z,1000.8
2023-05-21T15:51:42.622Z,1000.8
2023-05-21T15:53:03.692Z,1000.8
2023-05-21T15:54:23.736Z,1000.8
2023-05-21T15:55:44.816Z,1000.8
2023-05-21T15:57:05.948Z,1000.8
2023-05-21T15:58:27.034Z,1000.7
2023-05-21T15:59:48.106Z,1000.7
2023-05-21T16:01:09.199Z,1000.7
2023-05-21T16:02:30.275Z,1000.7
2023-05-21T16:03:51.344Z,1000.8
2023-05-21T16:05:12.431Z,1000.7
2023-05-21T16:06:33.513Z,1000.8
2023-05-21T16:07:54.588Z,1000.7
2023-05-21T16:09:15.661Z,1000.7
2023-05-21T16:10:36.735Z,1000.7
2023-05-21T16:11:56.828Z,1000.7
2023-05-21T16:13:17.919Z,1000.7
2023-05-21T16:16:00.069Z,1000.7
2023-05-21T16:17:21.145Z,1000.7
2023-05-21T16:18:42.222Z,1000.7
2023-05-21T16:20:03.237Z,1000.7
2023-05-21T16:21:24.373Z,1000.7
2023-05-21T16:22:45.454Z,1000.8
2023-05-21T16:24:06.518Z,1000.8
2023-05-21T16:25:27.597Z,1000.7
2023-05-21T16:26:48.692Z,1000.8
2023-05-21T16:28:09.703Z,1000.7
2023-05-21T16:29:29.870Z,1000.7
2023-05-21T16:30:50.955Z,1000.7
2023-05-21T16:32:12.022Z,1000.7
2023-05-21T16:33:33.099Z,1000.7
2023-05-21T16:34:54.185Z,1000.7
2023-05-21T16:36:15.252Z,1000.7
2023-05-21T16:37:36.343Z,1000.7
2023-05-21T16:38:57.413Z,1000.7
2023-05-21T16:40:18.500Z,1000.7
2023-05-21T16:41:39.575Z,1000.7
2023-05-21T16:43:00.588Z,1000.7
2023-05-21T16:44:21.713Z,1000.7
2023-05-21T16:45:42.792Z,1000.7
2023-05-21T16:47:02.893Z,1000.7
2023-05-21T16:48:23.955Z,1000.7
2023-05-21T16:49:45.026Z,1000.6
2023-05-21T16:51:06.099Z,1000.6
2023-05-21T16:52:27.117Z,1000.6
2023-05-21T16:53:48.243Z,1000.6
2023-05-21T16:55:09.324Z,1000.6
2023-05-21T16:56:30.380Z,1000.7
2023-05-21T16:57:51.464Z,1000.6
2023-05-21T16:59:12.513Z,1000.7
2023-05-21T17:00:33.594Z,1000.7
2023-05-21T17:01:54.665Z,1000.7
2023-05-21T17:03:15.744Z,1000.7
2023-05-21T17:04:35.842Z,1000.7
2023-05-21T17:05:56.900Z,1000.7
2023-05-21T17:07:17.984Z,1000.7
2023-05-21T17:08:39.049Z,1000.7
2023-05-21T17:10:00.114Z,1000.7
2023-05-21T17:11:21.192Z,1000.7
2023-05-21T17:12:42.205Z,1000.7
2023-05-21T17:14:03.329Z,1000.7
2023-05-21T17:15:24.391Z,1000.7
2023-05-21T17:16:45.472Z,1000.7
2023-05-21T17:18:06.545Z,1000.7
2023-05-21T17:19:27.625Z,1000.7
2023-05-21T17:20:48.687Z,1000.7
2023-05-21T17:22:08.767Z,1000.7
2023-05-21T17:23:29.785Z,1000.7
2023-05-21T17:24:50.898Z,1000.7
2023-05-21T17:26:11.972Z,1000.7
2023-05-21T17:27:33.040Z,1000.7
2023-05-21T17:28:54.044Z,1000.7
2023-05-21T17:30:15.111Z,1000.7
2023-05-21T17:31:36.262Z,1000.7
2023-05-21T17:32:57.330Z,1000.7
2023-05-21T17:34:18.394Z,1000.7
2023-05-21T17:35:39.460Z,1000.7
2023-05-21T17:37:00.521Z,1000.6
2023-05-21T17:38:21.598Z,1000.7
2023-05-21T17:39:41.621Z,1000.7
2023-05-21T17:41:02.686Z,1000.7
2023-05-21T17:42:23.752Z,1000.7
2023-05-21T17:45:05.884Z,1000.7
2023-05-21T17:46:27.017Z,1000.7
2023-05-21T17:47:48.081Z,1000.7
2023-05-21T17:49:09.141Z,1000.7
2023-05-21T17:50:30.213Z,1000.7
2023-05-21T17:51:51.271Z,1000.7
2023-05-21T17:53:12.331Z,1000.7
2023-05-21T17:54:33.407Z,1000.7
2023-05-21T17:55:54.464Z,1000.7
2023-05-21T17:57:14.553Z,1000.7
2023-05-21T17:58:35.583Z,1000.7
2023-05-21T17:59:56.690Z,1000.7
2023-05-21T18:01:17.769Z,1000.7
2023-05-21T18:02:38.821Z,1000.7
2023-05-21T18:03:59.886Z,1000.7
2023-05-21T18:05:20.953Z,1000.7
2023-05-21T18:06:42.023Z,1000.7
2023-05-21T18:08:03.109Z,1000.8
2023-05-21T18:09:24.116Z,1000.8
2023-05-21T18:10:45.222Z,1000.8
2023-05-21T18:12:06.240Z,1000.8
2023-05-21T18:13:27.307Z,1000.8
2023-05-21T18:14:47.450Z,1000.8
2023-05-21T18:16:08.473Z,1000.8
2023-05-21T18:17:29.529Z,1000.9
2023-05-21T18:18:50.660Z,1000.8
2023-05-21T18:20:11.660Z,1000.8
2023-05-21T18:21:32.724Z,1000.8
2023-05-21T18:22:53.808Z,1000.8
2023-05-21T18:24:14.875Z,1000.8
2023-05-21T18:25:35.926Z,1000.8
2023-05-21T18:26:57.001Z,1000.9
2023-05-21T18:28:18.121Z,1000.9
2023-05-21T18:29:39.136Z,1000.9
2023-05-21T18:31:00.254Z,1000.9
2023-05-21T18:32:20.323Z,1000.9
2023-05-21T18:33:41.350Z,1000.9
2023-05-21T18:35:02.471Z,1000.9
2023-05-21T18:36:23.473Z,1000.9
2023-05-21T18:37:44.545Z,1001
2023-05-21T18:39:05.667Z,1001
2023-05-21T18:40:26.720Z,1001
2023-05-21T18:41:47.792Z,1001
2023-05-21T18:43:08.852Z,1001
2023-05-21T18:44:29.000Z,1001
2023-05-21T18:45:50.997Z,1001
2023-05-21T18:47:12.052Z,1001
2023-05-21T18:48:33.122Z,1001
2023-05-21T18:49:53.199Z,1001
2023-05-21T18:51:14.268Z,1001
2023-05-21T18:52:35.331Z,1001
2023-05-21T18:53:56.411Z,1001
2023-05-21T18:55:17.483Z,1001
2023-05-21T18:56:38.542Z,1001
2023-05-21T18:57:58.630Z,1001
2023-05-21T18:59:19.698Z,1001.1
2023-05-21T19:00:40.768Z,1001.1
2023-05-21T19:02:01.831Z,1001.1
2023-05-21T19:03:22.852Z,1001.1
2023-05-21T19:04:43.961Z,1001.1
2023-05-21T19:06:04.981Z,1001.1
2023-05-21T19:07:26.111Z,1001.1
2023-05-21T19:08:47.177Z,1001.1
2023-05-21T19:10:08.179Z,1001.1
2023-05-21T19:11:29.317Z,1001.1
2023-05-21T19:12:50.312Z,1001.1
2023-05-21T19:14:11.432Z,1001.1
2023-05-21T19:15:31.517Z,1001.1
2023-05-21T19:16:52.593Z,1001.1
2023-05-21T19:18:13.598Z,1001.1
2023-05-21T19:19:34.667Z,1001.1
2023-05-21T19:20:55.733Z,1001.1
2023-05-21T19:22:16.857Z,1001.1
2023-05-21T19:23:37.914Z,1001.2
2023-05-21T19:24:58.995Z,1001.2
2023-05-21T19:26:20.055Z,1001.2
2023-05-21T19:27:41.158Z,1001.2
2023-05-21T19:29:02.239Z,1001.2
2023-05-21T19:30:23.245Z,1001.3
2023-05-21T19:31:44.354Z,1001.3
2023-05-21T19:33:04.423Z,1001.3
2023-05-21T19:34:25.498Z,1001.3
2023-05-21T19:35:46.616Z,1001.3
2023-05-21T19:37:07.626Z,1001.3
2023-05-21T19:38:28.791Z,1001.3
2023-05-21T19:39:49.902Z,1001.2
2023-05-21T19:41:11.008Z,1001.2
2023-05-21T19:42:32.060Z,1001.2
2023-05-21T19:43:53.176Z,1001.2
2023-05-21T19:45:14.351Z,1001.2
2023-05-21T19:46:35.404Z,1001.2
2023-05-21T19:47:56.516Z,1001.2
2023-05-21T19:49:17.668Z,1001.2
2023-05-21T19:50:37.801Z,1001.2
2023-05-21T19:51:58.918Z,1001.2
2023-05-21T19:53:20.024Z,1001.2
2023-05-21T19:54:41.069Z,1001.2
2023-05-21T19:56:02.241Z,1001.2
2023-05-21T19:57:23.349Z,1001.2
2023-05-21T19:58:44.453Z,1001.2
2023-05-21T20:00:05.561Z,1001.2
2023-05-21T20:01:26.676Z,1001.2
2023-05-21T20:02:47.779Z,1001.2
2023-05-21T20:04:08.884Z,1001.2
2023-05-21T20:05:30.004Z,1001.2
2023-05-21T20:06:51.128Z,1001.2
2023-05-21T20:08:11.240Z,1001.2
2023-05-21T20:09:32.292Z,1001.2
2023-05-21T20:10:53.415Z,1001.2
2023-05-21T20:12:14.574Z,1001.2
2023-05-21T20:13:35.677Z,1001.2
2023-05-21T20:14:56.735Z,1001.2
2023-05-21T20:16:17.902Z,1001.2
2023-05-21T20:17:38.996Z,1001.2
2023-05-21T20:19:00.111Z,1001.2
2023-05-21T20:20:21.229Z,1001.2
2023-05-21T20:21:42.325Z,1001.2
2023-05-21T20:23:03.387Z,1001.2
2023-05-21T20:24:24.542Z,1001.2
2023-05-21T20:25:44.684Z,1001.2
2023-05-21T20:27:05.728Z,1001.2
2023-05-21T20:28:26.836Z,1001.2
2023-05-21T20:29:48.016Z,1001.2
2023-05-21T20:31:09.123Z,1001.2
2023-05-21T20:32:30.240Z,1001.2
2023-05-21T20:33:51.350Z,1001.2
2023-05-21T20:35:12.398Z,1001.2
2023-05-21T20:36:33.555Z,1001.2
2023-05-21T20:37:54.659Z,1001.2
2023-05-21T20:39:15.727Z,1001.2
2023-05-21T20:40:36.822Z,1001.2
2023-05-21T20:41:57.934Z,1001.2
2023-05-21T20:43:18.068Z,1001.2
2023-05-21T20:44:39.170Z,1001.2
2023-05-21T20:46:00.295Z,1001.2
2023-05-21T20:47:21.395Z,1001.2
2023-05-21T20:48:42.520Z,1001.2
2023-05-21T20:50:03.617Z,1001.2
2023-05-21T20:51:24.722Z,1001.2
2023-05-21T20:52:45.843Z,1001.2
2023-05-21T20:54:06.936Z,1001.2
2023-05-21T20:55:28.046Z,1001.2
2023-05-21T20:56:49.173Z,1001.2
2023-05-21T20:58:10.282Z,1001.2
2023-05-21T20:59:31.386Z,1001.2
2023-05-21T21:00:51.507Z,1001.2
2023-05-21T21:02:12.616Z,1001.2
2023-05-21T21:03:33.717Z,1001.2
2023-05-21T21:04:54.843Z,1001.2
2023-05-21T21:06:15.930Z,1001.2
2023-05-21T21:07:37.048Z,1001.2
2023-05-21T21:08:58.163Z,1001.2
2023-05-21T21:10:19.271Z,1001.2
2023-05-21T21:11:40.374Z,1001.2
2023-05-21T21:13:01.499Z,1001.2
2023-05-21T21:14:22.603Z,1001.2
2023-05-21T21:15:43.701Z,1001.2
2023-05-21T21:17:04.821Z,1001.2
2023-05-21T21:18:25.915Z,1001.2
2023-05-21T21:19:46.036Z,1001.2
2023-05-21T21:21:07.150Z,1001.2
2023-05-21T21:22:28.262Z,1001.2
2023-05-21T21:23:49.369Z,1001.2
2023-05-21T21:25:10.489Z,1001.2
2023-05-21T21:26:31.584Z,1001.2
2023-05-21T21:27:52.710Z,1001.2
2023-05-21T21:29:13.821Z,1001.3
2023-05-21T21:30:34.921Z,1001.3
2023-05-21T21:31:56.026Z,1001.3
2023-05-21T21:34:38.243Z,1001.3
2023-05-21T21:35:59.350Z,1001.3
2023-05-21T21:37:19.482Z,1001.3
2023-05-21T21:38:40.588Z,1001.3
2023-05-21T21:40:01.699Z,1001.3
2023-05-21T21:41:22.795Z,1001.3